Aktualne dane pomiarowe

Uwaga, wersja testowa! Automatyczne pobieranie danych za pomocą narzędzi lub skryptów to umożliwiających jest zabronione.

Dane meteo z obszaru Polski uzyskane na podstawie depesz SYNOP pobieranych co godzinę z NWS. Najedź myszką na symbol przedstawiony w tabeli, aby uzyskać informacje co do jego znaczenia. Prosimy pamiętać, że to testowa wersja strony, która jeszcze nie jest ukończona. Stworzono również jest krótki FAQ dotyczący korzystania z tej podstrony Anomalie temperatury w chwili obecnej odniesione są do okresu referencyjnego 1951-2016. Okres ten będzie później zmieniony na 1981-2010. Kliknij ikonę aby pobrać plik CSV. Kliknij ikonę aby wygenerować mapę synoptyczną dla danego terminu.

Wybierz Datę:    

        

Tomaszów Mazowiecki (12466)

Dane terminowe dla wybranej stacji. Kliknij datę, aby otrzymać dane z tego terminu dla wszystkich stacji.

TemperaturaZachmurzenieWiatrCiśnienieOpadyPogoda
 Data t td wb tx tn tg rh  Nt Nl Cl Cm Ch ws wd g1 g2 wx mslp ppp ch 24h 12h t ww ww w1 w2  
2019-05-25 23:00:00 11.9 7.4 9.1--- 74---1wx---1014.5 992.5----------
2019-05-25 22:00:00 11.7 7.4 9.0--- 75---1wx---1014.3 992.3----------
2019-05-25 21:00:00 11.9 7.8 9.3--- 76---2wx---1014.2 992.2----------
2019-05-25 20:00:00 12.9 8.2 10.0--- 73---1wx---1013.5 991.6----------
2019-05-25 19:00:00 15.1 8.2 11.0--- 63---2wx---1013.1 991.4----------
2019-05-25 18:00:00 17.5 8.1 12.0--- 54---2wx---1012.3 990.8----------
2019-05-25 17:00:00 20.2 7.6 13.1--- 44---5wx---1011.7 990.4----------
2019-05-25 16:00:00 21.3 7.6 13.6--- 41---6wx---1011.4 990.2----------
2019-05-25 15:00:00 21.9 8.4 14.2--- 42---4wx---1011.2 990.1----------
2019-05-25 14:00:00 21.8 10.0 14.8--- 47---5wx---1011.4 990.2----------
2019-05-25 13:00:00 21.8 10.0 14.8--- 47---4wx---1011.5 990.3----------
2019-05-25 12:00:00 21.9 7.0 13.6--- 38---4wx---1011.1 990.0----------
2019-05-25 11:00:00 21.9 8.4 14.2--- 42---3wx---1011.7 990.5----------
2019-05-25 10:00:00 20.5 9.8 14.2--- 50---4wx---1012.1 990.8----------
2019-05-25 09:00:00 19.7 9.3 13.6--- 51---3wx---1012.1 990.8----------
2019-05-25 08:00:00 18.7 8.1 12.6--- 50---2wx---1012.2 990.8----------
2019-05-25 07:00:00 17.4 8.3 12.1--- 55---2wx---1012.2 990.7----------
2019-05-25 06:00:00 15.2 8.2 11.0--- 63---2wx---1012.4 990.7----------
2019-05-25 05:00:00 12.2 7.7 9.4--- 74---1wx---1012.6 990.7----------
2019-05-25 04:00:00 9.4 8.0 8.4--- 91---1wx---1012.6 990.5----------
2019-05-25 03:00:00 8.0 7.1 7.3--- 94---2wx---1012.5 990.3----------
2019-05-25 02:00:00 7.4 6.3 6.6--- 93---0wx---1012.4 990.1----------
2019-05-25 01:00:00 7.7 6.3 6.7--- 91---0wx---1012.4 990.1----------
2019-05-25 00:00:00 9.6 8.2 8.6--- 91---2wx---1012.5 990.4----------
2019-05-24 23:00:00 9.8 8.6 8.9--- 92---1wx---1012.8 990.7----------
2019-05-24 22:00:00 10.6 9.0 9.5--- 90---1wx---1012.6 990.6----------
2019-05-24 21:00:00 11.1 9.4 9.9--- 89---0wx---1012.8 990.8----------
2019-05-24 20:00:00 12.5 9.7 10.6--- 83---0wx---1012.8 990.9----------
2019-05-24 19:00:00 14.5 10.1 11.7--- 75---1wx---1012.6 990.9----------
2019-05-24 18:00:00 16.6 10.5 12.8--- 67---1wx---1012.2 990.6----------
2019-05-24 17:00:00 17.6 10.5 13.2--- 6310.0wxwxwx2wx---1012.1 990.6 -0.7---------
2019-05-24 16:00:00 17.9 10.8 13.5--- 6310.0wxwxwx2wx---1012.3 990.8 -0.8---------
2019-05-24 15:00:00 17.8 10.9 13.5--- 6410.0wxwxwx2wx---1012.5 991.0 -0.9---------
2019-05-24 14:00:00 18.0 11.1 13.7--- 6410.0wxwxwx1wx---1012.8 991.3 -0.8---------
2019-05-24 13:00:00 17.1 10.5 13.0--- 6510.0wxwxwx1wx---1013.1 991.6 -0.9---------
2019-05-24 12:00:00 17.0 10.6 13.0--- 6610.0wxwxwx3wx---1013.5 991.9 -0.5---------
2019-05-24 11:00:00 17.0 10.6 13.0--- 6610.0wxwxwx3wx---1013.7 992.1 -0.5---------
2019-05-24 10:00:00 16.3 10.8 12.8--- 7010.0wxwxwx4wx---1014.1 992.5 0.0---------
2019-05-24 09:00:00 15.3 10.0 12.0--- 7110.0wxwxwx4wx---1014.1 992.4 -0.3---------
2019-05-24 08:00:00 14.6 9.4 11.4--- 7110.0wxwxwx3wx---1014.3 992.5 -0.2---------
2019-05-24 07:00:00 14.5 9.3 11.3--- 7110.0wxwxwx3wx---1014.4 992.6 0.2---------
2019-05-24 06:00:00 13.0 8.9 10.4--- 7610.0wxwxwx4wx---1014.5 992.6 0.2---------
2019-05-24 05:00:00 12.7 9.5 10.6--- 8110.0wxwxwx3wx---1014.5 992.6 0.5---wx-w1--
2019-05-24 04:00:00 11.7 9.4 10.2--- 8610.0wxwxwx3wx---1014.4 992.4 0.0---wx---
2019-05-24 03:00:00 11.8 9.5 10.3--- 8610.0wxwxwx3wx---1014.5 992.5 -0.1---------
2019-05-24 02:00:00 11.9 9.3 10.2--- 84---4wx---1014.2 992.2----------
2019-05-24 01:00:00 12.5 10.6 11.2--- 88---4wx---1014.3 992.4----------
2019-05-24 00:00:00 12.7 10.8 11.4--- 88---3wx---1014.5 992.6----------
2.0 ms

 

Print Friendly, PDF & Email